Terminal Aerodrome Forecast
Issued by NWS Binghamton, NY

Home | Current Version | Previous Version | Text Only | Print | Product List | Glossary On
Versions: 1 2 3 4 5 6 7 8 9 10 11 12 13 14 15 16 17 18 19 20 21 22 23
000
FTUS41 KBGM 171451 AAA
TAFBGM
TAF AMD
KBGM 171451Z 1715/1812 VRB03KT P6SM OVC012
     FM172000 15005KT P6SM OVC035
      TEMPO 1720/1722 OVC025
     FM180300 17005KT P6SM OVC015=

USA.gov is the U.S. government's official web portal to all federal, state and local government web resources and services.